sensor_id;sensor_type;location;lat;lon;timestamp;P1;durP1;ratioP1;P2;durP2;ratioP2
41709;SDS011;59402;48.396;-4.472;2023-03-04T00:01:47;9.57;;;2.72;;
41709;SDS011;59402;48.396;-4.472;2023-03-04T00:04:13;9.15;;;2.78;;
41709;SDS011;59402;48.396;-4.472;2023-03-04T00:06:38;9.18;;;2.60;;
41709;SDS011;59402;48.396;-4.472;2023-03-04T00:09:04;6.28;;;2.47;;
41709;SDS011;59402;48.396;-4.472;2023-03-04T00:11:30;8.98;;;2.85;;
41709;SDS011;59402;48.396;-4.472;2023-03-04T00:13:56;10.52;;;2.60;;
41709;SDS011;59402;48.396;-4.472;2023-03-04T00:16:22;10.45;;;3.13;;
41709;SDS011;59402;48.396;-4.472;2023-03-04T00:18:51;8.13;;;2.70;;
41709;SDS011;59402;48.396;-4.472;2023-03-04T00:21:18;11.75;;;2.97;;
41709;SDS011;59402;48.396;-4.472;2023-03-04T00:23:43;7.95;;;2.97;;
41709;SDS011;59402;48.396;-4.472;2023-03-04T00:26:09;9.55;;;3.03;;
41709;SDS011;59402;48.396;-4.472;2023-03-04T00:28:36;7.87;;;3.47;;
41709;SDS011;59402;48.396;-4.472;2023-03-04T00:31:03;10.57;;;3.25;;
41709;SDS011;59402;48.396;-4.472;2023-03-04T00:33:29;9.07;;;3.10;;
41709;SDS011;59402;48.396;-4.472;2023-03-04T00:35:55;8.07;;;3.50;;
41709;SDS011;59402;48.396;-4.472;2023-03-04T00:38:21;8.23;;;3.20;;
41709;SDS011;59402;48.396;-4.472;2023-03-04T00:40:47;9.77;;;3.97;;
41709;SDS011;59402;48.396;-4.472;2023-03-04T00:43:13;7.85;;;2.97;;
41709;SDS011;59402;48.396;-4.472;2023-03-04T00:45:39;11.32;;;3.47;;
41709;SDS011;59402;48.396;-4.472;2023-03-04T00:48:04;11.40;;;3.35;;
41709;SDS011;59402;48.396;-4.472;2023-03-04T00:50:30;7.78;;;3.20;;
41709;SDS011;59402;48.396;-4.472;2023-03-04T00:52:56;9.73;;;3.30;;
41709;SDS011;59402;48.396;-4.472;2023-03-04T00:55:21;11.02;;;3.80;;
41709;SDS011;59402;48.396;-4.472;2023-03-04T00:57:47;10.82;;;3.50;;
41709;SDS011;59402;48.396;-4.472;2023-03-04T01:00:13;10.00;;;3.92;;
41709;SDS011;59402;48.396;-4.472;2023-03-04T01:02:39;14.30;;;3.38;;
41709;SDS011;59402;48.396;-4.472;2023-03-04T01:05:06;8.25;;;2.80;;
41709;SDS011;59402;48.396;-4.472;2023-03-04T01:07:32;6.88;;;2.90;;
41709;SDS011;59402;48.396;-4.472;2023-03-04T01:09:59;11.15;;;3.00;;
41709;SDS011;59402;48.396;-4.472;2023-03-04T01:12:24;7.10;;;2.72;;
41709;SDS011;59402;48.396;-4.472;2023-03-04T01:14:50;10.00;;;2.55;;
41709;SDS011;59402;48.396;-4.472;2023-03-04T01:17:16;9.80;;;2.65;;
41709;SDS011;59402;48.396;-4.472;2023-03-04T01:19:42;6.82;;;2.75;;
41709;SDS011;59402;48.396;-4.472;2023-03-04T01:22:08;9.63;;;3.53;;
41709;SDS011;59402;48.396;-4.472;2023-03-04T01:24:34;8.73;;;2.40;;
41709;SDS011;59402;48.396;-4.472;2023-03-04T01:27:00;9.55;;;2.55;;
41709;SDS011;59402;48.396;-4.472;2023-03-04T01:29:26;10.10;;;3.35;;
41709;SDS011;59402;48.396;-4.472;2023-03-04T01:31:52;10.98;;;2.60;;
41709;SDS011;59402;48.396;-4.472;2023-03-04T01:34:18;8.13;;;2.58;;
41709;SDS011;59402;48.396;-4.472;2023-03-04T01:36:44;8.43;;;2.50;;
41709;SDS011;59402;48.396;-4.472;2023-03-04T01:39:10;9.32;;;3.08;;
41709;SDS011;59402;48.396;-4.472;2023-03-04T01:41:35;5.70;;;2.33;;
41709;SDS011;59402;48.396;-4.472;2023-03-04T01:44:01;8.45;;;2.35;;
41709;SDS011;59402;48.396;-4.472;2023-03-04T01:46:28;14.88;;;2.72;;
41709;SDS011;59402;48.396;-4.472;2023-03-04T01:48:54;7.78;;;2.50;;
41709;SDS011;59402;48.396;-4.472;2023-03-04T01:51:20;10.10;;;2.50;;
41709;SDS011;59402;48.396;-4.472;2023-03-04T01:53:47;7.72;;;2.70;;
41709;SDS011;59402;48.396;-4.472;2023-03-04T01:56:19;9.05;;;2.58;;
41709;SDS011;59402;48.396;-4.472;2023-03-04T02:01:33;11.20;;;2.80;;
41709;SDS011;59402;48.396;-4.472;2023-03-04T02:03:59;7.15;;;2.58;;
41709;SDS011;59402;48.396;-4.472;2023-03-04T02:06:26;7.65;;;2.72;;
41709;SDS011;59402;48.396;-4.472;2023-03-04T02:08:51;8.60;;;2.47;;
41709;SDS011;59402;48.396;-4.472;2023-03-04T02:11:17;8.52;;;2.78;;
41709;SDS011;59402;48.396;-4.472;2023-03-04T02:13:43;11.18;;;2.95;;
41709;SDS011;59402;48.396;-4.472;2023-03-04T02:16:09;7.40;;;2.92;;
41709;SDS011;59402;48.396;-4.472;2023-03-04T02:18:34;10.23;;;2.88;;
41709;SDS011;59402;48.396;-4.472;2023-03-04T02:26:20;8.10;;;2.45;;
41709;SDS011;59402;48.396;-4.472;2023-03-04T02:34:03;7.90;;;3.17;;
41709;SDS011;59402;48.396;-4.472;2023-03-04T02:36:31;8.52;;;3.10;;
41709;SDS011;59402;48.396;-4.472;2023-03-04T02:39:06;8.40;;;2.47;;
41709;SDS011;59402;48.396;-4.472;2023-03-04T02:41:55;8.75;;;2.90;;
41709;SDS011;59402;48.396;-4.472;2023-03-04T02:44:27;11.63;;;3.10;;
41709;SDS011;59402;48.396;-4.472;2023-03-04T02:46:59;8.90;;;2.50;;
41709;SDS011;59402;48.396;-4.472;2023-03-04T02:49:27;11.70;;;3.25;;
41709;SDS011;59402;48.396;-4.472;2023-03-04T02:51:58;9.55;;;2.75;;
41709;SDS011;59402;48.396;-4.472;2023-03-04T02:54:30;9.10;;;2.78;;
41709;SDS011;59402;48.396;-4.472;2023-03-04T02:56:59;10.25;;;3.13;;
41709;SDS011;59402;48.396;-4.472;2023-03-04T02:59:27;9.55;;;3.17;;
41709;SDS011;59402;48.396;-4.472;2023-03-04T03:01:54;11.60;;;3.83;;
41709;SDS011;59402;48.396;-4.472;2023-03-04T03:04:21;11.80;;;3.08;;
41709;SDS011;59402;48.396;-4.472;2023-03-04T03:06:50;10.75;;;3.28;;
41709;SDS011;59402;48.396;-4.472;2023-03-04T03:09:18;7.40;;;2.80;;
41709;SDS011;59402;48.396;-4.472;2023-03-04T03:11:44;8.18;;;2.97;;
41709;SDS011;59402;48.396;-4.472;2023-03-04T03:14:10;9.30;;;2.38;;
41709;SDS011;59402;48.396;-4.472;2023-03-04T03:16:36;10.75;;;2.50;;
41709;SDS011;59402;48.396;-4.472;2023-03-04T03:19:03;7.00;;;2.38;;
41709;SDS011;59402;48.396;-4.472;2023-03-04T03:21:29;11.02;;;3.28;;
41709;SDS011;59402;48.396;-4.472;2023-03-04T03:23:55;9.93;;;2.90;;
41709;SDS011;59402;48.396;-4.472;2023-03-04T03:26:21;11.75;;;2.67;;
41709;SDS011;59402;48.396;-4.472;2023-03-04T03:28:46;11.48;;;3.28;;
41709;SDS011;59402;48.396;-4.472;2023-03-04T03:31:13;10.05;;;2.80;;
41709;SDS011;59402;48.396;-4.472;2023-03-04T03:33:39;7.72;;;2.63;;
41709;SDS011;59402;48.396;-4.472;2023-03-04T03:36:05;6.63;;;3.00;;
41709;SDS011;59402;48.396;-4.472;2023-03-04T03:38:31;10.65;;;3.30;;
41709;SDS011;59402;48.396;-4.472;2023-03-04T03:40:57;7.35;;;2.17;;
41709;SDS011;59402;48.396;-4.472;2023-03-04T03:43:22;11.80;;;2.70;;
41709;SDS011;59402;48.396;-4.472;2023-03-04T03:45:48;9.55;;;3.17;;
41709;SDS011;59402;48.396;-4.472;2023-03-04T03:48:15;8.10;;;2.80;;
41709;SDS011;59402;48.396;-4.472;2023-03-04T03:50:41;10.57;;;2.60;;
41709;SDS011;59402;48.396;-4.472;2023-03-04T03:53:08;7.18;;;2.65;;
41709;SDS011;59402;48.396;-4.472;2023-03-04T03:55:33;12.32;;;3.17;;
41709;SDS011;59402;48.396;-4.472;2023-03-04T03:57:59;9.75;;;2.78;;
41709;SDS011;59402;48.396;-4.472;2023-03-04T04:00:25;9.35;;;2.50;;
41709;SDS011;59402;48.396;-4.472;2023-03-04T04:02:51;5.60;;;2.90;;
41709;SDS011;59402;48.396;-4.472;2023-03-04T04:07:44;6.28;;;2.40;;
41709;SDS011;59402;48.396;-4.472;2023-03-04T04:10:10;15.77;;;2.90;;
41709;SDS011;59402;48.396;-4.472;2023-03-04T04:12:36;11.30;;;3.05;;
41709;SDS011;59402;48.396;-4.472;2023-03-04T04:15:02;7.03;;;2.58;;
41709;SDS011;59402;48.396;-4.472;2023-03-04T04:17:28;9.23;;;3.08;;
41709;SDS011;59402;48.396;-4.472;2023-03-04T04:19:53;7.47;;;2.83;;
41709;SDS011;59402;48.396;-4.472;2023-03-04T04:22:19;10.35;;;3.00;;
41709;SDS011;59402;48.396;-4.472;2023-03-04T04:24:46;9.18;;;2.90;;
41709;SDS011;59402;48.396;-4.472;2023-03-04T04:27:11;8.70;;;2.70;;
41709;SDS011;59402;48.396;-4.472;2023-03-04T04:29:38;7.55;;;3.00;;
41709;SDS011;59402;48.396;-4.472;2023-03-04T04:32:04;7.80;;;3.25;;
41709;SDS011;59402;48.396;-4.472;2023-03-04T04:34:30;9.73;;;2.88;;
41709;SDS011;59402;48.396;-4.472;2023-03-04T04:36:55;6.18;;;2.67;;
41709;SDS011;59402;48.396;-4.472;2023-03-04T04:39:21;7.85;;;2.72;;
41709;SDS011;59402;48.396;-4.472;2023-03-04T04:41:47;6.60;;;2.40;;
41709;SDS011;59402;48.396;-4.472;2023-03-04T04:44:13;9.15;;;2.67;;
41709;SDS011;59402;48.396;-4.472;2023-03-04T04:46:40;7.57;;;2.40;;
41709;SDS011;59402;48.396;-4.472;2023-03-04T04:49:06;7.15;;;2.40;;
41709;SDS011;59402;48.396;-4.472;2023-03-04T04:51:33;7.45;;;2.58;;
41709;SDS011;59402;48.396;-4.472;2023-03-04T04:53:59;6.68;;;1.90;;
41709;SDS011;59402;48.396;-4.472;2023-03-04T04:56:26;7.00;;;2.10;;
41709;SDS011;59402;48.396;-4.472;2023-03-04T04:58:53;5.28;;;1.80;;
41709;SDS011;59402;48.396;-4.472;2023-03-04T05:01:21;7.90;;;2.05;;
41709;SDS011;59402;48.396;-4.472;2023-03-04T05:03:47;8.63;;;2.53;;
41709;SDS011;59402;48.396;-4.472;2023-03-04T05:06:20;6.25;;;2.20;;
41709;SDS011;59402;48.396;-4.472;2023-03-04T05:08:46;8.35;;;2.67;;
41709;SDS011;59402;48.396;-4.472;2023-03-04T05:11:13;8.32;;;2.70;;
41709;SDS011;59402;48.396;-4.472;2023-03-04T05:13:39;7.35;;;2.60;;
41709;SDS011;59402;48.396;-4.472;2023-03-04T05:16:05;7.60;;;2.53;;
41709;SDS011;59402;48.396;-4.472;2023-03-04T05:18:31;7.88;;;2.33;;
41709;SDS011;59402;48.396;-4.472;2023-03-04T05:20:57;6.53;;;2.25;;
41709;SDS011;59402;48.396;-4.472;2023-03-04T05:25:51;3.83;;;1.97;;
41709;SDS011;59402;48.396;-4.472;2023-03-04T05:28:17;7.53;;;2.22;;
41709;SDS011;59402;48.396;-4.472;2023-03-04T05:30:43;5.82;;;1.98;;
41709;SDS011;59402;48.396;-4.472;2023-03-04T05:33:10;5.78;;;1.83;;
41709;SDS011;59402;48.396;-4.472;2023-03-04T05:35:38;4.97;;;2.25;;
41709;SDS011;59402;48.396;-4.472;2023-03-04T05:38:04;8.43;;;2.30;;
41709;SDS011;59402;48.396;-4.472;2023-03-04T05:40:31;5.85;;;1.80;;
41709;SDS011;59402;48.396;-4.472;2023-03-04T05:42:57;4.63;;;1.73;;
41709;SDS011;59402;48.396;-4.472;2023-03-04T05:45:24;4.68;;;2.00;;
41709;SDS011;59402;48.396;-4.472;2023-03-04T05:47:50;4.97;;;1.90;;
41709;SDS011;59402;48.396;-4.472;2023-03-04T05:50:16;6.88;;;1.77;;
41709;SDS011;59402;48.396;-4.472;2023-03-04T05:52:42;6.05;;;1.58;;
41709;SDS011;59402;48.396;-4.472;2023-03-04T05:55:08;8.25;;;1.70;;
41709;SDS011;59402;48.396;-4.472;2023-03-04T05:57:34;4.38;;;1.70;;
41709;SDS011;59402;48.396;-4.472;2023-03-04T06:00:00;4.32;;;1.73;;
41709;SDS011;59402;48.396;-4.472;2023-03-04T06:02:27;5.72;;;1.48;;
41709;SDS011;59402;48.396;-4.472;2023-03-04T06:04:52;6.85;;;1.95;;
41709;SDS011;59402;48.396;-4.472;2023-03-04T06:07:18;5.68;;;1.88;;
41709;SDS011;59402;48.396;-4.472;2023-03-04T06:09:44;6.20;;;2.10;;
41709;SDS011;59402;48.396;-4.472;2023-03-04T06:12:10;5.82;;;1.80;;
41709;SDS011;59402;48.396;-4.472;2023-03-04T06:14:36;5.07;;;1.92;;
41709;SDS011;59402;48.396;-4.472;2023-03-04T06:17:02;6.75;;;2.10;;
41709;SDS011;59402;48.396;-4.472;2023-03-04T06:19:28;7.03;;;1.60;;
41709;SDS011;59402;48.396;-4.472;2023-03-04T06:21:54;6.80;;;2.30;;
41709;SDS011;59402;48.396;-4.472;2023-03-04T06:24:19;5.38;;;1.63;;
41709;SDS011;59402;48.396;-4.472;2023-03-04T06:26:45;6.80;;;1.80;;
41709;SDS011;59402;48.396;-4.472;2023-03-04T06:29:11;5.18;;;1.58;;
41709;SDS011;59402;48.396;-4.472;2023-03-04T06:31:36;6.15;;;2.00;;
41709;SDS011;59402;48.396;-4.472;2023-03-04T06:34:03;6.45;;;1.60;;
41709;SDS011;59402;48.396;-4.472;2023-03-04T06:36:29;4.60;;;1.83;;
41709;SDS011;59402;48.396;-4.472;2023-03-04T06:38:55;5.68;;;2.03;;
41709;SDS011;59402;48.396;-4.472;2023-03-04T06:41:20;4.47;;;1.58;;
41709;SDS011;59402;48.396;-4.472;2023-03-04T06:43:46;4.65;;;1.67;;
41709;SDS011;59402;48.396;-4.472;2023-03-04T06:46:12;6.47;;;2.30;;
41709;SDS011;59402;48.396;-4.472;2023-03-04T06:48:38;7.13;;;1.80;;
41709;SDS011;59402;48.396;-4.472;2023-03-04T06:51:04;4.53;;;1.35;;
41709;SDS011;59402;48.396;-4.472;2023-03-04T06:53:31;6.03;;;2.17;;
41709;SDS011;59402;48.396;-4.472;2023-03-04T06:55:57;6.70;;;1.65;;
41709;SDS011;59402;48.396;-4.472;2023-03-04T06:58:23;8.20;;;2.10;;
41709;SDS011;59402;48.396;-4.472;2023-03-04T07:00:49;6.63;;;1.90;;
41709;SDS011;59402;48.396;-4.472;2023-03-04T07:03:14;5.43;;;1.95;;
41709;SDS011;59402;48.396;-4.472;2023-03-04T07:05:41;7.18;;;1.98;;
41709;SDS011;59402;48.396;-4.472;2023-03-04T07:08:07;5.83;;;1.77;;
41709;SDS011;59402;48.396;-4.472;2023-03-04T07:10:32;6.95;;;1.98;;
41709;SDS011;59402;48.396;-4.472;2023-03-04T07:12:58;6.93;;;1.83;;
41709;SDS011;59402;48.396;-4.472;2023-03-04T07:15:24;6.18;;;1.80;;
41709;SDS011;59402;48.396;-4.472;2023-03-04T07:17:50;6.43;;;1.70;;
41709;SDS011;59402;48.396;-4.472;2023-03-04T07:20:16;6.65;;;1.92;;
41709;SDS011;59402;48.396;-4.472;2023-03-04T07:22:42;6.32;;;2.28;;
41709;SDS011;59402;48.396;-4.472;2023-03-04T07:25:08;6.88;;;1.55;;
41709;SDS011;59402;48.396;-4.472;2023-03-04T07:27:35;4.35;;;1.40;;
41709;SDS011;59402;48.396;-4.472;2023-03-04T07:30:03;9.80;;;1.98;;
41709;SDS011;59402;48.396;-4.472;2023-03-04T07:32:29;8.75;;;1.98;;
41709;SDS011;59402;48.396;-4.472;2023-03-04T07:34:57;5.82;;;1.70;;
41709;SDS011;59402;48.396;-4.472;2023-03-04T07:37:23;6.13;;;1.50;;
41709;SDS011;59402;48.396;-4.472;2023-03-04T07:39:49;8.68;;;2.28;;
41709;SDS011;59402;48.396;-4.472;2023-03-04T07:42:14;9.25;;;1.88;;
41709;SDS011;59402;48.396;-4.472;2023-03-04T07:44:49;6.20;;;1.67;;
41709;SDS011;59402;48.396;-4.472;2023-03-04T07:47:15;4.68;;;1.77;;
41709;SDS011;59402;48.396;-4.472;2023-03-04T07:49:40;6.60;;;1.95;;
41709;SDS011;59402;48.396;-4.472;2023-03-04T07:52:06;7.10;;;1.65;;
41709;SDS011;59402;48.396;-4.472;2023-03-04T07:54:32;6.13;;;1.40;;
41709;SDS011;59402;48.396;-4.472;2023-03-04T07:56:58;4.03;;;1.88;;
41709;SDS011;59402;48.396;-4.472;2023-03-04T07:59:25;6.67;;;1.77;;
41709;SDS011;59402;48.396;-4.472;2023-03-04T08:01:51;7.25;;;2.00;;
41709;SDS011;59402;48.396;-4.472;2023-03-04T08:04:16;7.47;;;2.10;;
41709;SDS011;59402;48.396;-4.472;2023-03-04T08:06:42;5.45;;;2.00;;
41709;SDS011;59402;48.396;-4.472;2023-03-04T08:09:09;4.15;;;1.75;;
41709;SDS011;59402;48.396;-4.472;2023-03-04T08:11:37;6.45;;;2.08;;
41709;SDS011;59402;48.396;-4.472;2023-03-04T08:14:03;7.68;;;2.20;;
41709;SDS011;59402;48.396;-4.472;2023-03-04T08:16:29;5.43;;;1.90;;
41709;SDS011;59402;48.396;-4.472;2023-03-04T08:18:56;7.55;;;1.90;;
41709;SDS011;59402;48.396;-4.472;2023-03-04T08:21:24;6.50;;;2.15;;
41709;SDS011;59402;48.396;-4.472;2023-03-04T08:26:18;9.15;;;2.90;;
41709;SDS011;59402;48.396;-4.472;2023-03-04T08:28:46;7.03;;;2.08;;
41709;SDS011;59402;48.396;-4.472;2023-03-04T08:31:13;5.68;;;2.00;;
41709;SDS011;59402;48.396;-4.472;2023-03-04T08:33:40;4.72;;;2.00;;
41709;SDS011;59402;48.396;-4.472;2023-03-04T08:36:06;5.20;;;2.22;;
41709;SDS011;59402;48.396;-4.472;2023-03-04T08:38:32;6.32;;;2.15;;
41709;SDS011;59402;48.396;-4.472;2023-03-04T08:40:58;7.32;;;1.92;;
41709;SDS011;59402;48.396;-4.472;2023-03-04T08:43:24;4.60;;;1.88;;
41709;SDS011;59402;48.396;-4.472;2023-03-04T08:45:54;5.30;;;2.17;;
41709;SDS011;59402;48.396;-4.472;2023-03-04T08:48:20;4.65;;;2.10;;
41709;SDS011;59402;48.396;-4.472;2023-03-04T08:50:46;7.32;;;2.50;;
41709;SDS011;59402;48.396;-4.472;2023-03-04T08:53:13;5.95;;;2.58;;
41709;SDS011;59402;48.396;-4.472;2023-03-04T08:55:39;8.82;;;2.47;;
41709;SDS011;59402;48.396;-4.472;2023-03-04T08:58:06;6.40;;;2.40;;
41709;SDS011;59402;48.396;-4.472;2023-03-04T09:00:32;9.90;;;2.40;;
41709;SDS011;59402;48.396;-4.472;2023-03-04T09:02:59;5.80;;;2.35;;
41709;SDS011;59402;48.396;-4.472;2023-03-04T09:05:25;5.22;;;2.80;;
41709;SDS011;59402;48.396;-4.472;2023-03-04T09:07:51;6.88;;;2.35;;
41709;SDS011;59402;48.396;-4.472;2023-03-04T09:10:18;6.65;;;2.33;;
41709;SDS011;59402;48.396;-4.472;2023-03-04T09:12:44;5.80;;;2.40;;
41709;SDS011;59402;48.396;-4.472;2023-03-04T09:15:10;6.65;;;2.20;;
41709;SDS011;59402;48.396;-4.472;2023-03-04T09:17:37;5.00;;;2.10;;
41709;SDS011;59402;48.396;-4.472;2023-03-04T09:20:03;4.10;;;2.00;;
41709;SDS011;59402;48.396;-4.472;2023-03-04T09:22:30;4.18;;;1.92;;
41709;SDS011;59402;48.396;-4.472;2023-03-04T09:24:56;6.10;;;2.20;;
41709;SDS011;59402;48.396;-4.472;2023-03-04T09:27:21;4.15;;;1.60;;
41709;SDS011;59402;48.396;-4.472;2023-03-04T09:29:47;4.95;;;1.80;;
41709;SDS011;59402;48.396;-4.472;2023-03-04T09:32:13;6.57;;;1.90;;
41709;SDS011;59402;48.396;-4.472;2023-03-04T09:34:39;4.35;;;1.80;;
41709;SDS011;59402;48.396;-4.472;2023-03-04T09:37:05;5.72;;;1.92;;
41709;SDS011;59402;48.396;-4.472;2023-03-04T09:39:31;5.15;;;2.17;;
41709;SDS011;59402;48.396;-4.472;2023-03-04T09:41:57;5.38;;;1.60;;
41709;SDS011;59402;48.396;-4.472;2023-03-04T09:44:25;6.27;;;1.87;;
41709;SDS011;59402;48.396;-4.472;2023-03-04T09:46:54;5.28;;;1.80;;
41709;SDS011;59402;48.396;-4.472;2023-03-04T09:49:24;5.47;;;1.77;;
41709;SDS011;59402;48.396;-4.472;2023-03-04T09:51:52;5.65;;;1.55;;
41709;SDS011;59402;48.396;-4.472;2023-03-04T09:54:49;3.45;;;1.42;;
41709;SDS011;59402;48.396;-4.472;2023-03-04T10:00:07;5.22;;;1.40;;
41709;SDS011;59402;48.396;-4.472;2023-03-04T10:05:28;7.15;;;1.92;;
41709;SDS011;59402;48.396;-4.472;2023-03-04T10:07:58;4.35;;;2.00;;
41709;SDS011;59402;48.396;-4.472;2023-03-04T10:10:46;4.30;;;2.10;;
41709;SDS011;59402;48.396;-4.472;2023-03-04T10:13:15;5.40;;;2.10;;
41709;SDS011;59402;48.396;-4.472;2023-03-04T10:15:45;5.22;;;2.88;;
41709;SDS011;59402;48.396;-4.472;2023-03-04T10:18:15;7.30;;;3.20;;
41709;SDS011;59402;48.396;-4.472;2023-03-04T10:20:56;6.68;;;3.30;;
41709;SDS011;59402;48.396;-4.472;2023-03-04T10:23:30;9.43;;;3.47;;
41709;SDS011;59402;48.396;-4.472;2023-03-04T10:25:56;10.40;;;4.28;;
41709;SDS011;59402;48.396;-4.472;2023-03-04T10:28:26;9.05;;;4.97;;
41709;SDS011;59402;48.396;-4.472;2023-03-04T10:33:46;9.52;;;4.43;;
41709;SDS011;59402;48.396;-4.472;2023-03-04T10:38:57;8.45;;;4.72;;
41709;SDS011;59402;48.396;-4.472;2023-03-04T10:41:24;7.70;;;4.57;;
41709;SDS011;59402;48.396;-4.472;2023-03-04T10:44:03;7.32;;;4.00;;
41709;SDS011;59402;48.396;-4.472;2023-03-04T10:46:39;9.57;;;4.55;;
41709;SDS011;59402;48.396;-4.472;2023-03-04T10:49:06;9.38;;;4.45;;
41709;SDS011;59402;48.396;-4.472;2023-03-04T10:51:40;9.35;;;5.20;;
41709;SDS011;59402;48.396;-4.472;2023-03-04T10:54:34;8.23;;;4.43;;
41709;SDS011;59402;48.396;-4.472;2023-03-04T11:02:33;7.75;;;4.70;;
41709;SDS011;59402;48.396;-4.472;2023-03-04T11:07:48;8.38;;;4.28;;
41709;SDS011;59402;48.396;-4.472;2023-03-04T11:13:05;7.50;;;4.05;;
41709;SDS011;59402;48.396;-4.472;2023-03-04T11:15:49;7.45;;;4.65;;
41709;SDS011;59402;48.396;-4.472;2023-03-04T11:18:30;10.15;;;4.57;;
41709;SDS011;59402;48.396;-4.472;2023-03-04T11:21:19;10.25;;;4.07;;
41709;SDS011;59402;48.396;-4.472;2023-03-04T11:23:53;9.40;;;3.95;;
41709;SDS011;59402;48.396;-4.472;2023-03-04T11:26:22;8.65;;;4.30;;
41709;SDS011;59402;48.396;-4.472;2023-03-04T11:28:57;8.70;;;4.20;;
41709;SDS011;59402;48.396;-4.472;2023-03-04T11:34:39;6.35;;;4.00;;
41709;SDS011;59402;48.396;-4.472;2023-03-04T11:37:21;8.32;;;4.50;;
41709;SDS011;59402;48.396;-4.472;2023-03-04T11:39:58;7.53;;;4.07;;
41709;SDS011;59402;48.396;-4.472;2023-03-04T11:42:53;7.07;;;4.25;;
41709;SDS011;59402;48.396;-4.472;2023-03-04T11:48:28;7.13;;;4.15;;
41709;SDS011;59402;48.396;-4.472;2023-03-04T11:51:02;10.60;;;4.68;;
41709;SDS011;59402;48.396;-4.472;2023-03-04T12:04:28;10.60;;;4.05;;
41709;SDS011;59402;48.396;-4.472;2023-03-04T12:14:58;8.65;;;3.08;;
41709;SDS011;59402;48.396;-4.472;2023-03-04T12:17:36;7.50;;;3.13;;
41709;SDS011;59402;48.396;-4.472;2023-03-04T12:29:06;7.90;;;3.85;;
41709;SDS011;59402;48.396;-4.472;2023-03-04T12:31:44;9.20;;;3.40;;
41709;SDS011;59402;48.396;-4.472;2023-03-04T12:34:25;6.88;;;4.05;;
41709;SDS011;59402;48.396;-4.472;2023-03-04T12:39:54;8.57;;;3.97;;
41709;SDS011;59402;48.396;-4.472;2023-03-04T12:48:55;6.68;;;3.30;;
41709;SDS011;59402;48.396;-4.472;2023-03-04T12:51:48;9.80;;;3.83;;
41709;SDS011;59402;48.396;-4.472;2023-03-04T12:54:33;6.18;;;3.22;;
41709;SDS011;59402;48.396;-4.472;2023-03-04T12:57:14;7.05;;;4.50;;
41709;SDS011;59402;48.396;-4.472;2023-03-04T13:11:02;9.13;;;6.05;;
41709;SDS011;59402;48.396;-4.472;2023-03-04T13:16:31;8.27;;;4.80;;
41709;SDS011;59402;48.396;-4.472;2023-03-04T13:19:02;9.65;;;5.20;;
41709;SDS011;59402;48.396;-4.472;2023-03-04T13:21:28;9.32;;;4.63;;
41709;SDS011;59402;48.396;-4.472;2023-03-04T13:24:00;10.02;;;5.38;;
41709;SDS011;59402;48.396;-4.472;2023-03-04T13:26:57;9.50;;;5.00;;
41709;SDS011;59402;48.396;-4.472;2023-03-04T13:32:27;10.60;;;5.32;;
41709;SDS011;59402;48.396;-4.472;2023-03-04T13:34:51;9.27;;;5.28;;
41709;SDS011;59402;48.396;-4.472;2023-03-04T13:37:34;8.57;;;4.82;;
41709;SDS011;59402;48.396;-4.472;2023-03-04T13:40:35;8.45;;;4.57;;
41709;SDS011;59402;48.396;-4.472;2023-03-04T13:43:19;6.38;;;4.22;;
41709;SDS011;59402;48.396;-4.472;2023-03-04T13:48:45;9.38;;;4.95;;
41709;SDS011;59402;48.396;-4.472;2023-03-04T13:51:31;7.40;;;3.58;;
41709;SDS011;59402;48.396;-4.472;2023-03-04T13:59:26;7.68;;;4.90;;
41709;SDS011;59402;48.396;-4.472;2023-03-04T14:14:59;8.63;;;4.80;;
41709;SDS011;59402;48.396;-4.472;2023-03-04T14:17:38;9.48;;;4.75;;
41709;SDS011;59402;48.396;-4.472;2023-03-04T14:20:21;12.07;;;4.80;;
41709;SDS011;59402;48.396;-4.472;2023-03-04T14:22:55;9.05;;;5.32;;
41709;SDS011;59402;48.396;-4.472;2023-03-04T14:25:23;10.10;;;5.18;;
41709;SDS011;59402;48.396;-4.472;2023-03-04T14:30:40;8.75;;;5.90;;
41709;SDS011;59402;48.396;-4.472;2023-03-04T14:33:07;9.52;;;6.18;;
41709;SDS011;59402;48.396;-4.472;2023-03-04T14:35:38;14.15;;;6.50;;
41709;SDS011;59402;48.396;-4.472;2023-03-04T14:38:17;11.43;;;6.57;;
41709;SDS011;59402;48.396;-4.472;2023-03-04T14:40:49;13.43;;;6.78;;
41709;SDS011;59402;48.396;-4.472;2023-03-04T14:43:18;12.55;;;6.43;;
41709;SDS011;59402;48.396;-4.472;2023-03-04T14:45:46;8.23;;;5.47;;
41709;SDS011;59402;48.396;-4.472;2023-03-04T14:48:20;8.98;;;5.78;;
41709;SDS011;59402;48.396;-4.472;2023-03-04T14:50:47;8.48;;;5.50;;
41709;SDS011;59402;48.396;-4.472;2023-03-04T14:53:18;8.27;;;5.00;;
41709;SDS011;59402;48.396;-4.472;2023-03-04T14:56:02;8.65;;;4.95;;
41709;SDS011;59402;48.396;-4.472;2023-03-04T14:58:35;11.48;;;5.03;;
41709;SDS011;59402;48.396;-4.472;2023-03-04T15:01:13;7.60;;;4.15;;
41709;SDS011;59402;48.396;-4.472;2023-03-04T15:04:13;7.22;;;3.35;;
41709;SDS011;59402;48.396;-4.472;2023-03-04T15:06:37;5.82;;;3.50;;
41709;SDS011;59402;48.396;-4.472;2023-03-04T15:09:21;7.43;;;3.40;;
41709;SDS011;59402;48.396;-4.472;2023-03-04T15:11:49;8.80;;;3.50;;
41709;SDS011;59402;48.396;-4.472;2023-03-04T15:17:18;9.02;;;4.00;;
41709;SDS011;59402;48.396;-4.472;2023-03-04T15:22:26;9.68;;;5.15;;
41709;SDS011;59402;48.396;-4.472;2023-03-04T15:24:52;10.48;;;5.38;;
41709;SDS011;59402;48.396;-4.472;2023-03-04T15:27:18;9.93;;;5.53;;
41709;SDS011;59402;48.396;-4.472;2023-03-04T15:29:53;12.82;;;5.88;;
41709;SDS011;59402;48.396;-4.472;2023-03-04T15:32:21;8.88;;;5.13;;
41709;SDS011;59402;48.396;-4.472;2023-03-04T15:34:47;8.75;;;5.15;;
41709;SDS011;59402;48.396;-4.472;2023-03-04T15:37:23;12.25;;;5.88;;
41709;SDS011;59402;48.396;-4.472;2023-03-04T15:39:51;12.07;;;5.90;;
41709;SDS011;59402;48.396;-4.472;2023-03-04T15:42:17;8.30;;;4.82;;
41709;SDS011;59402;48.396;-4.472;2023-03-04T15:44:43;10.05;;;4.72;;
41709;SDS011;59402;48.396;-4.472;2023-03-04T15:47:09;8.70;;;4.63;;
41709;SDS011;59402;48.396;-4.472;2023-03-04T15:49:41;9.27;;;4.63;;
41709;SDS011;59402;48.396;-4.472;2023-03-04T15:52:15;9.30;;;4.60;;
41709;SDS011;59402;48.396;-4.472;2023-03-04T15:54:43;7.72;;;4.38;;
41709;SDS011;59402;48.396;-4.472;2023-03-04T15:57:15;9.52;;;4.57;;
41709;SDS011;59402;48.396;-4.472;2023-03-04T15:59:45;15.68;;;9.52;;
41709;SDS011;59402;48.396;-4.472;2023-03-04T16:02:21;11.85;;;5.75;;
41709;SDS011;59402;48.396;-4.472;2023-03-04T16:04:48;9.77;;;3.55;;
41709;SDS011;59402;48.396;-4.472;2023-03-04T16:07:33;11.52;;;3.35;;
41709;SDS011;59402;48.396;-4.472;2023-03-04T16:10:00;14.75;;;7.10;;
41709;SDS011;59402;48.396;-4.472;2023-03-04T16:12:29;12.55;;;5.88;;
41709;SDS011;59402;48.396;-4.472;2023-03-04T16:14:55;7.50;;;3.15;;
41709;SDS011;59402;48.396;-4.472;2023-03-04T16:17:21;7.93;;;3.15;;
41709;SDS011;59402;48.396;-4.472;2023-03-04T16:19:47;10.98;;;3.10;;
41709;SDS011;59402;48.396;-4.472;2023-03-04T16:22:20;6.38;;;2.45;;
41709;SDS011;59402;48.396;-4.472;2023-03-04T16:24:50;7.78;;;2.60;;
41709;SDS011;59402;48.396;-4.472;2023-03-04T16:27:16;8.93;;;2.70;;
41709;SDS011;59402;48.396;-4.472;2023-03-04T16:29:44;18.00;;;3.28;;
41709;SDS011;59402;48.396;-4.472;2023-03-04T16:32:09;12.30;;;3.45;;
41709;SDS011;59402;48.396;-4.472;2023-03-04T16:34:35;9.20;;;3.10;;
41709;SDS011;59402;48.396;-4.472;2023-03-04T16:37:02;11.30;;;3.03;;
41709;SDS011;59402;48.396;-4.472;2023-03-04T16:39:31;13.02;;;2.90;;
41709;SDS011;59402;48.396;-4.472;2023-03-04T16:41:56;10.48;;;3.45;;
41709;SDS011;59402;48.396;-4.472;2023-03-04T16:44:22;12.52;;;3.15;;
41709;SDS011;59402;48.396;-4.472;2023-03-04T16:46:48;8.95;;;3.05;;
41709;SDS011;59402;48.396;-4.472;2023-03-04T16:49:14;9.73;;;2.45;;
41709;SDS011;59402;48.396;-4.472;2023-03-04T16:51:41;12.65;;;3.05;;
41709;SDS011;59402;48.396;-4.472;2023-03-04T16:54:13;10.85;;;2.97;;